createdAt,value
2022-11-21T00:00:53.203Z,18.20
2022-11-21T00:03:19.821Z,18.20
2022-11-21T00:05:47.907Z,18.20
2022-11-21T00:08:20.779Z,18.20
2022-11-21T00:10:48.003Z,18.20
2022-11-21T00:13:20.128Z,18.20
2022-11-21T00:15:47.873Z,18.20
2022-11-21T00:18:15.339Z,18.20
2022-11-21T00:20:43.205Z,18.20
2022-11-21T00:23:10.518Z,18.20
2022-11-21T00:25:38.175Z,18.20
2022-11-21T00:28:05.882Z,18.20
2022-11-21T00:30:32.590Z,18.20
2022-11-21T00:32:59.435Z,18.20
2022-11-21T00:35:27.056Z,18.20
2022-11-21T00:37:53.704Z,18.20
2022-11-21T00:40:20.303Z,18.10
2022-11-21T00:42:46.929Z,18.10
2022-11-21T00:45:13.640Z,18.10
2022-11-21T00:47:40.263Z,18.10
2022-11-21T00:50:07.319Z,18.10
2022-11-21T00:52:33.988Z,18.10
2022-11-21T00:55:00.613Z,18.10
2022-11-21T00:57:27.295Z,18.10
2022-11-21T00:59:53.888Z,18.10
2022-11-21T01:02:20.670Z,18.10
2022-11-21T01:04:47.293Z,18.10
2022-11-21T01:07:14.960Z,18.10
2022-11-21T01:09:41.888Z,18.10
2022-11-21T01:12:08.621Z,18.10
2022-11-21T01:14:35.259Z,18.10
2022-11-21T01:17:01.837Z,18.10
2022-11-21T01:19:28.430Z,18.10
2022-11-21T01:21:55.056Z,18.10
2022-11-21T01:24:21.655Z,18.10
2022-11-21T01:26:50.776Z,18.10
2022-11-21T01:29:17.520Z,18.00
2022-11-21T01:31:44.102Z,18.00
2022-11-21T01:34:10.904Z,18.10
2022-11-21T01:36:37.544Z,18.10
2022-11-21T01:39:06.195Z,18.00
2022-11-21T01:41:43.974Z,18.00
2022-11-21T01:44:22.945Z,18.00
2022-11-21T01:46:50.613Z,18.00
2022-11-21T01:49:32.371Z,18.00
2022-11-21T01:52:03.646Z,18.00
2022-11-21T01:54:40.947Z,18.00
2022-11-21T01:57:33.219Z,18.00
2022-11-21T02:00:08.441Z,18.00
2022-11-21T02:02:38.916Z,18.00
2022-11-21T02:05:11.174Z,18.00
2022-11-21T02:07:42.292Z,18.00
2022-11-21T02:10:10.080Z,18.00
2022-11-21T02:12:53.857Z,18.00
2022-11-21T02:15:26.463Z,18.00
2022-11-21T02:17:53.320Z,18.00
2022-11-21T02:20:22.895Z,18.00
2022-11-21T02:23:14.308Z,18.00
2022-11-21T02:25:42.960Z,18.00
2022-11-21T02:28:14.408Z,18.00
2022-11-21T02:30:42.470Z,18.00
2022-11-21T02:33:10.967Z,18.00
2022-11-21T02:35:37.611Z,18.00
2022-11-21T02:38:11.423Z,17.90
2022-11-21T02:40:42.919Z,17.90
2022-11-21T02:43:28.397Z,17.90
2022-11-21T02:45:55.130Z,17.90
2022-11-21T02:48:21.735Z,17.90
2022-11-21T02:50:48.355Z,17.90
2022-11-21T02:53:17.209Z,17.90
2022-11-21T02:55:44.467Z,17.90
2022-11-21T02:58:11.768Z,18.00
2022-11-21T03:00:40.330Z,17.90
2022-11-21T03:03:07.400Z,17.90
2022-11-21T03:05:34.264Z,17.90
2022-11-21T03:08:00.944Z,17.90
2022-11-21T03:10:27.611Z,17.90
2022-11-21T03:13:00.668Z,17.90
2022-11-21T03:15:29.083Z,17.90
2022-11-21T03:17:56.702Z,17.90
2022-11-21T03:20:23.663Z,17.90
2022-11-21T03:22:50.390Z,17.90
2022-11-21T03:25:17.622Z,17.90
2022-11-21T03:27:44.238Z,17.90
2022-11-21T03:30:11.634Z,17.90
2022-11-21T03:32:38.235Z,17.90
2022-11-21T03:35:05.688Z,17.90
2022-11-21T03:37:32.277Z,17.90
2022-11-21T03:39:58.889Z,17.90
2022-11-21T03:42:25.469Z,17.90
2022-11-21T03:44:52.044Z,17.90
2022-11-21T03:47:18.665Z,17.90
2022-11-21T03:49:45.242Z,17.90
2022-11-21T03:52:11.830Z,17.90
2022-11-21T03:54:38.392Z,17.90
2022-11-21T03:57:04.984Z,17.90
2022-11-21T03:59:31.581Z,17.90
2022-11-21T04:01:58.201Z,17.80
2022-11-21T04:04:25.016Z,17.90
2022-11-21T04:06:51.701Z,17.90
2022-11-21T04:09:18.271Z,17.80
2022-11-21T04:11:44.939Z,17.90
2022-11-21T04:14:11.553Z,17.80
2022-11-21T04:16:38.158Z,17.80
2022-11-21T04:19:04.764Z,17.90
2022-11-21T04:21:31.346Z,17.80
2022-11-21T04:23:57.940Z,17.90
2022-11-21T04:26:24.605Z,17.80
2022-11-21T04:28:51.216Z,17.80
2022-11-21T04:31:17.855Z,17.80
2022-11-21T04:33:44.414Z,17.80
2022-11-21T04:36:11.070Z,17.80
2022-11-21T04:38:37.648Z,17.80
2022-11-21T04:41:04.877Z,17.80
2022-11-21T04:43:31.536Z,17.80
2022-11-21T04:45:58.116Z,17.80
2022-11-21T04:48:24.747Z,17.80
2022-11-21T04:50:51.429Z,17.80
2022-11-21T04:53:18.002Z,17.80
2022-11-21T04:55:44.587Z,17.80
2022-11-21T04:58:11.179Z,17.80
2022-11-21T05:00:37.778Z,17.80
2022-11-21T05:03:05.946Z,17.80
2022-11-21T05:05:32.699Z,17.80
2022-11-21T05:07:59.349Z,17.80
2022-11-21T05:10:26.000Z,17.80
2022-11-21T05:13:18.634Z,17.80
2022-11-21T05:15:45.665Z,17.80
2022-11-21T05:18:12.356Z,17.80
2022-11-21T05:20:39.018Z,17.80
2022-11-21T05:23:05.657Z,17.80
2022-11-21T05:25:32.264Z,17.80
2022-11-21T05:27:58.902Z,17.80
2022-11-21T05:30:25.721Z,17.80
2022-11-21T05:32:52.414Z,17.80
2022-11-21T05:35:19.042Z,17.80
2022-11-21T05:37:45.654Z,17.80
2022-11-21T05:40:12.599Z,17.80
2022-11-21T05:42:59.108Z,17.80
2022-11-21T05:45:25.919Z,17.80
2022-11-21T05:47:52.630Z,17.80
2022-11-21T05:50:19.235Z,17.80
2022-11-21T05:52:45.825Z,17.80
2022-11-21T05:55:12.563Z,17.80
2022-11-21T05:57:39.192Z,17.80
2022-11-21T06:00:06.304Z,17.80
2022-11-21T06:02:51.957Z,17.80
2022-11-21T06:05:18.575Z,17.80
2022-11-21T06:07:45.373Z,17.80
2022-11-21T06:10:12.035Z,17.80
2022-11-21T06:12:38.634Z,17.80
2022-11-21T06:15:05.518Z,17.80
2022-11-21T06:17:32.716Z,17.80
2022-11-21T06:19:59.279Z,17.80
2022-11-21T06:22:25.877Z,17.80
2022-11-21T06:24:52.493Z,17.80
2022-11-21T06:27:19.087Z,17.80
2022-11-21T06:29:45.730Z,17.90
2022-11-21T06:32:12.592Z,17.80
2022-11-21T06:34:39.343Z,17.80
2022-11-21T06:37:06.453Z,17.90
2022-11-21T06:39:33.055Z,18.00
2022-11-21T06:42:00.940Z,18.00
2022-11-21T06:44:27.730Z,18.00
2022-11-21T06:46:54.989Z,18.00
2022-11-21T06:49:22.162Z,18.00
2022-11-21T06:51:48.900Z,18.00
2022-11-21T06:54:17.070Z,18.00
2022-11-21T06:56:44.275Z,18.10
2022-11-21T06:59:11.263Z,18.10
2022-11-21T07:01:37.961Z,18.10
2022-11-21T07:04:04.792Z,18.10
2022-11-21T07:06:31.457Z,18.10
2022-11-21T07:09:30.888Z,18.10
2022-11-21T07:11:44.817Z,18.10
2022-11-21T07:14:11.738Z,18.20
2022-11-21T07:16:38.507Z,18.20
2022-11-21T07:19:05.527Z,18.20
2022-11-21T07:21:32.233Z,18.30
2022-11-21T07:23:59.022Z,18.20
2022-11-21T07:26:25.613Z,18.20
2022-11-21T07:28:54.267Z,18.10
2022-11-21T07:31:20.868Z,18.10
2022-11-21T07:33:47.887Z,18.10
2022-11-21T07:36:14.660Z,18.10
2022-11-21T07:38:41.886Z,18.10
2022-11-21T07:41:09.430Z,18.10
2022-11-21T07:43:36.043Z,18.10
2022-11-21T07:46:02.759Z,18.20
2022-11-21T07:48:29.423Z,18.10
2022-11-21T07:50:56.012Z,18.10
2022-11-21T07:53:22.678Z,18.10
2022-11-21T07:55:49.303Z,18.20
2022-11-21T07:58:17.309Z,18.20
2022-11-21T08:00:44.224Z,18.20
2022-11-21T08:03:12.589Z,18.20
2022-11-21T08:05:43.655Z,18.20
2022-11-21T08:08:12.327Z,18.20
2022-11-21T08:10:40.858Z,18.20
2022-11-21T08:13:07.649Z,18.30
2022-11-21T08:15:34.424Z,18.20
2022-11-21T08:18:15.319Z,18.30
2022-11-21T08:20:42.751Z,18.30
2022-11-21T08:23:10.648Z,18.30
2022-11-21T08:25:38.668Z,18.30
2022-11-21T08:28:06.678Z,18.30
2022-11-21T08:30:34.618Z,18.30
2022-11-21T08:33:02.052Z,18.30
2022-11-21T08:35:30.053Z,18.30
2022-11-21T08:37:57.553Z,18.30
2022-11-21T08:40:29.292Z,18.30
2022-11-21T08:42:57.763Z,18.30
2022-11-21T08:45:24.912Z,18.30
2022-11-21T08:47:53.681Z,18.40
2022-11-21T08:50:20.730Z,18.40
2022-11-21T08:52:47.417Z,18.40
2022-11-21T08:55:14.086Z,18.30
2022-11-21T08:57:41.864Z,18.40
2022-11-21T09:00:12.470Z,18.40
2022-11-21T09:02:39.091Z,18.40
2022-11-21T09:05:06.252Z,18.40
2022-11-21T09:07:32.944Z,18.40
2022-11-21T09:09:59.571Z,18.40
2022-11-21T09:12:26.145Z,18.40
2022-11-21T09:15:11.376Z,18.40
2022-11-21T09:17:56.807Z,18.40
2022-11-21T09:20:23.566Z,18.40
2022-11-21T09:22:50.349Z,18.40
2022-11-21T09:25:16.988Z,18.40
2022-11-21T09:27:43.580Z,18.40
2022-11-21T09:30:10.712Z,18.40
2022-11-21T09:32:37.332Z,18.50
2022-11-21T09:35:04.805Z,18.40
2022-11-21T09:37:37.099Z,18.50
2022-11-21T09:40:06.342Z,18.50
2022-11-21T09:43:23.505Z,18.50
2022-11-21T09:46:11.573Z,18.50
2022-11-21T09:48:51.455Z,18.50
2022-11-21T09:51:20.452Z,18.50
2022-11-21T09:54:00.878Z,18.50
2022-11-21T09:56:33.130Z,18.50
2022-11-21T09:59:11.415Z,18.50
2022-11-21T10:01:38.770Z,18.50
2022-11-21T10:04:05.586Z,18.50
2022-11-21T10:06:38.845Z,18.60
2022-11-21T10:09:27.012Z,18.50
2022-11-21T10:12:32.563Z,18.50
2022-11-21T10:15:32.614Z,18.50
2022-11-21T10:18:07.712Z,18.50
2022-11-21T10:20:59.056Z,18.50
2022-11-21T10:23:32.231Z,18.50
2022-11-21T10:26:22.542Z,18.50
2022-11-21T10:29:10.708Z,18.50
2022-11-21T10:31:40.620Z,18.50
2022-11-21T10:34:19.034Z,18.50
2022-11-21T10:36:49.980Z,18.60
2022-11-21T10:39:28.899Z,18.60
2022-11-21T10:42:12.030Z,18.60
2022-11-21T10:44:57.027Z,18.60
2022-11-21T10:47:31.117Z,18.60
2022-11-21T10:50:08.659Z,18.60
2022-11-21T10:52:50.673Z,18.60
2022-11-21T10:55:18.149Z,18.60
2022-11-21T10:57:52.326Z,18.60
2022-11-21T11:00:23.834Z,18.60
2022-11-21T11:03:16.118Z,18.60
2022-11-21T11:05:57.801Z,18.60
2022-11-21T11:08:26.922Z,18.60
2022-11-21T11:11:07.461Z,18.60
2022-11-21T11:13:53.065Z,18.60
2022-11-21T11:16:22.030Z,18.60
2022-11-21T11:19:08.537Z,18.60
2022-11-21T11:21:41.343Z,18.50
2022-11-21T11:24:10.940Z,18.60
2022-11-21T11:26:49.713Z,18.60
2022-11-21T11:29:17.745Z,18.60
2022-11-21T11:32:04.425Z,18.60
2022-11-21T11:34:40.552Z,18.70
2022-11-21T11:37:26.399Z,18.60
2022-11-21T11:40:16.153Z,18.70
2022-11-21T11:43:38.914Z,18.60
2022-11-21T11:46:57.843Z,18.70
2022-11-21T11:49:29.932Z,18.70
2022-11-21T11:52:02.425Z,18.70
2022-11-21T11:54:48.728Z,18.70
2022-11-21T11:57:17.023Z,18.70
2022-11-21T12:00:21.853Z,18.70
2022-11-21T12:03:03.903Z,18.70
2022-11-21T12:05:32.068Z,18.70
2022-11-21T12:08:40.686Z,18.80
2022-11-21T12:11:47.980Z,18.70
2022-11-21T12:15:08.508Z,18.70
2022-11-21T12:17:43.858Z,18.70
2022-11-21T12:21:07.082Z,18.60
2022-11-21T12:23:41.819Z,18.70
2022-11-21T12:26:20.461Z,18.60
2022-11-21T12:28:58.982Z,18.60
2022-11-21T12:31:34.158Z,18.60
2022-11-21T12:34:22.377Z,18.60
2022-11-21T12:37:07.424Z,18.60
2022-11-21T12:39:42.315Z,18.50
2022-11-21T12:42:43.352Z,18.50
2022-11-21T12:45:29.211Z,18.50
2022-11-21T12:48:35.457Z,18.50
2022-11-21T12:51:35.655Z,18.50
2022-11-21T12:54:33.592Z,18.50
2022-11-21T12:57:10.245Z,18.50
2022-11-21T13:00:08.871Z,18.50
2022-11-21T13:03:03.924Z,18.50
2022-11-21T13:05:38.931Z,18.50
2022-11-21T13:08:12.201Z,18.50
2022-11-21T13:10:46.877Z,18.50
2022-11-21T13:13:29.979Z,18.50
2022-11-21T13:16:39.448Z,18.50
2022-11-21T13:19:35.958Z,18.50
2022-11-21T13:22:02.660Z,18.60
2022-11-21T13:24:56.181Z,18.60
2022-11-21T13:27:54.510Z,18.60
2022-11-21T13:30:23.982Z,18.60
2022-11-21T13:32:55.224Z,18.70
2022-11-21T13:35:21.759Z,18.70
2022-11-21T13:38:13.052Z,18.70
2022-11-21T13:41:01.018Z,18.70
2022-11-21T13:43:33.843Z,18.70
2022-11-21T13:46:01.303Z,18.70
2022-11-21T13:48:31.106Z,18.70
2022-11-21T13:51:10.222Z,18.70
2022-11-21T13:54:14.138Z,18.70
2022-11-21T13:56:47.182Z,18.80
2022-11-21T13:59:22.923Z,18.80
2022-11-21T14:01:55.675Z,18.80
2022-11-21T14:04:53.994Z,18.80
2022-11-21T14:07:32.525Z,18.80
2022-11-21T14:10:02.210Z,18.80
2022-11-21T14:12:44.349Z,18.70
2022-11-21T14:15:24.719Z,18.70
2022-11-21T14:17:55.644Z,18.70
2022-11-21T14:21:00.510Z,18.70
2022-11-21T14:23:30.422Z,18.70
2022-11-21T14:26:02.348Z,18.60
2022-11-21T14:28:31.520Z,18.70
2022-11-21T14:31:09.430Z,18.70
2022-11-21T14:33:37.393Z,18.70
2022-11-21T14:36:23.615Z,18.80
2022-11-21T14:39:28.730Z,18.80
2022-11-21T14:41:44.744Z,18.80
2022-11-21T14:44:11.319Z,18.80
2022-11-21T14:46:39.958Z,18.80
2022-11-21T14:49:29.149Z,18.80
2022-11-21T14:52:10.859Z,18.70
2022-11-21T14:57:45.789Z,18.70
2022-11-21T15:03:16.631Z,18.70
2022-11-21T15:09:51.395Z,18.70
2022-11-21T15:11:27.114Z,18.70
2022-11-21T15:14:15.533Z,18.70
2022-11-21T15:16:44.158Z,18.70
2022-11-21T15:19:11.243Z,18.70
2022-11-21T15:21:46.322Z,18.70
2022-11-21T15:24:29.135Z,18.70
2022-11-21T15:26:55.832Z,18.70
2022-11-21T15:29:22.793Z,18.70
2022-11-21T15:34:57.274Z,18.70
2022-11-21T15:37:25.200Z,18.80
2022-11-21T15:39:53.419Z,18.80
2022-11-21T15:42:31.901Z,18.80
2022-11-21T15:45:20.767Z,18.80
2022-11-21T15:47:48.296Z,18.80
2022-11-21T15:50:15.607Z,18.80
2022-11-21T15:52:50.515Z,18.80
2022-11-21T15:55:22.944Z,18.80
2022-11-21T15:57:13.218Z,18.70
2022-11-21T15:57:49.709Z,18.80
2022-11-21T16:00:17.332Z,18.70
2022-11-21T16:02:43.976Z,18.80
2022-11-21T16:05:13.815Z,18.80
2022-11-21T16:07:41.507Z,18.80
2022-11-21T16:10:17.251Z,18.80
2022-11-21T16:12:48.357Z,18.80
2022-11-21T16:15:15.217Z,18.80
2022-11-21T16:17:41.894Z,18.80
2022-11-21T16:20:08.951Z,18.80
2022-11-21T16:22:35.531Z,18.80
2022-11-21T16:25:02.129Z,18.80
2022-11-21T16:27:29.340Z,18.70
2022-11-21T16:29:55.951Z,18.70
2022-11-21T16:32:25.431Z,18.70
2022-11-21T16:34:52.126Z,18.70
2022-11-21T16:37:19.944Z,18.70
2022-11-21T16:39:52.006Z,18.80
2022-11-21T16:42:19.694Z,18.80
2022-11-21T16:44:46.376Z,18.80
2022-11-21T16:47:14.055Z,18.80
2022-11-21T16:49:44.881Z,18.80
2022-11-21T16:52:11.525Z,18.80
2022-11-21T16:54:38.188Z,18.80
2022-11-21T16:57:04.928Z,18.80
2022-11-21T16:59:32.450Z,18.90
2022-11-21T17:01:59.355Z,18.90
2022-11-21T17:04:26.052Z,18.80
2022-11-21T17:06:53.188Z,18.80
2022-11-21T17:09:19.782Z,18.80
2022-11-21T17:11:46.439Z,18.80
2022-11-21T17:14:13.325Z,18.80
2022-11-21T17:16:41.493Z,18.80
2022-11-21T17:19:11.315Z,18.80
2022-11-21T17:21:37.886Z,18.80
2022-11-21T17:24:04.668Z,18.80
2022-11-21T17:26:31.341Z,18.80
2022-11-21T17:29:00.298Z,18.90
2022-11-21T17:31:27.463Z,18.90
2022-11-21T17:33:56.886Z,18.90
2022-11-21T17:36:26.016Z,18.90
2022-11-21T17:38:53.644Z,18.90
2022-11-21T17:41:22.643Z,18.90
2022-11-21T17:43:49.307Z,19.00
2022-11-21T17:46:17.701Z,19.00
2022-11-21T17:48:49.981Z,18.90
2022-11-21T17:51:23.697Z,18.90
2022-11-21T17:53:51.162Z,19.00
2022-11-21T17:56:23.148Z,18.90
2022-11-21T17:58:51.180Z,18.90
2022-11-21T18:01:21.748Z,18.90
2022-11-21T18:03:57.204Z,18.90
2022-11-21T18:06:24.826Z,18.90
2022-11-21T18:08:51.635Z,18.80
2022-11-21T18:11:21.307Z,18.80
2022-11-21T18:13:49.222Z,18.80
2022-11-21T18:16:19.020Z,18.80
2022-11-21T18:18:46.546Z,18.80
2022-11-21T18:21:15.480Z,18.80
2022-11-21T18:23:43.921Z,18.70
2022-11-21T18:26:15.477Z,18.70
2022-11-21T18:28:42.729Z,18.70
2022-11-21T18:31:14.987Z,18.70
2022-11-21T18:33:42.618Z,18.70
2022-11-21T18:36:10.692Z,18.70
2022-11-21T18:38:53.703Z,18.70
2022-11-21T18:41:25.668Z,18.70
2022-11-21T18:43:54.655Z,18.70
2022-11-21T18:46:22.020Z,18.70
2022-11-21T18:49:02.827Z,18.70
2022-11-21T18:51:31.619Z,18.70
2022-11-21T18:54:03.710Z,18.80
2022-11-21T18:56:30.737Z,18.80
2022-11-21T18:58:59.116Z,18.80
2022-11-21T19:01:28.177Z,18.80
2022-11-21T19:03:55.178Z,18.80
2022-11-21T19:06:23.674Z,18.80
2022-11-21T19:08:55.363Z,18.80
2022-11-21T19:11:24.879Z,18.90
2022-11-21T19:13:52.895Z,18.90
2022-11-21T19:16:21.571Z,18.90
2022-11-21T19:19:11.706Z,18.80
2022-11-21T19:21:37.695Z,18.80
2022-11-21T19:24:06.581Z,18.90
2022-11-21T19:26:33.326Z,18.90
2022-11-21T19:28:59.923Z,18.90
2022-11-21T19:31:26.523Z,18.90
2022-11-21T19:33:53.160Z,18.90
2022-11-21T19:36:21.820Z,18.90
2022-11-21T19:38:51.249Z,19.00
2022-11-21T19:41:25.832Z,19.00
2022-11-21T19:43:57.837Z,19.00
2022-11-21T19:46:27.346Z,19.00
2022-11-21T19:48:55.804Z,19.00
2022-11-21T19:51:24.936Z,19.00
2022-11-21T19:53:51.620Z,19.00
2022-11-21T19:56:20.830Z,19.00
2022-11-21T19:58:48.082Z,19.00
2022-11-21T20:01:17.645Z,19.00
2022-11-21T20:03:46.052Z,19.00
2022-11-21T20:06:22.934Z,19.00
2022-11-21T20:09:11.221Z,19.00
2022-11-21T20:11:39.891Z,19.00
2022-11-21T20:14:07.157Z,19.00
2022-11-21T20:16:33.795Z,19.00
2022-11-21T20:19:02.942Z,19.00
2022-11-21T20:21:30.168Z,19.00
2022-11-21T20:23:57.329Z,19.00
2022-11-21T20:26:25.113Z,19.00
2022-11-21T20:28:53.075Z,19.00
2022-11-21T20:31:39.087Z,19.00
2022-11-21T20:34:08.339Z,19.00
2022-11-21T20:36:36.620Z,19.00
2022-11-21T20:39:11.562Z,19.00
2022-11-21T20:41:38.257Z,19.00
2022-11-21T20:46:53.684Z,18.90
2022-11-21T20:49:20.313Z,18.90
2022-11-21T20:54:34.304Z,18.90
2022-11-21T20:57:03.989Z,18.80
2022-11-21T20:59:30.793Z,18.80
2022-11-21T21:01:57.640Z,18.80
2022-11-21T21:04:24.449Z,18.80
2022-11-21T21:06:51.153Z,18.80
2022-11-21T21:09:17.881Z,18.70
2022-11-21T21:11:52.198Z,18.70
2022-11-21T21:14:19.978Z,18.70
2022-11-21T21:16:46.701Z,18.70
2022-11-21T21:19:13.342Z,18.70
2022-11-21T21:21:41.380Z,18.70
2022-11-21T21:24:09.844Z,18.60
2022-11-21T21:26:43.357Z,18.70
2022-11-21T21:29:12.227Z,18.70
2022-11-21T21:31:40.901Z,18.60
2022-11-21T21:34:10.767Z,18.60
2022-11-21T21:36:37.393Z,18.60
2022-11-21T21:39:04.490Z,18.60
2022-11-21T21:41:31.644Z,18.60
2022-11-21T21:43:58.714Z,18.60
2022-11-21T21:46:27.392Z,18.60
2022-11-21T21:48:56.193Z,18.60
2022-11-21T21:51:28.076Z,18.60
2022-11-21T21:53:56.695Z,18.50
2022-11-21T21:56:25.126Z,18.50
2022-11-21T21:58:52.125Z,18.50
2022-11-21T22:01:20.956Z,18.50
2022-11-21T22:03:48.434Z,18.50
2022-11-21T22:06:17.253Z,18.50
2022-11-21T22:08:45.501Z,18.50
2022-11-21T22:11:15.183Z,18.50
2022-11-21T22:13:44.282Z,18.50
2022-11-21T22:16:12.260Z,18.50
2022-11-21T22:18:39.758Z,18.50
2022-11-21T22:21:17.737Z,18.50
2022-11-21T22:24:02.833Z,18.50
2022-11-21T22:26:32.055Z,18.50
2022-11-21T22:28:58.682Z,18.50
2022-11-21T22:31:25.280Z,18.40
2022-11-21T22:33:51.960Z,18.40
2022-11-21T22:36:19.233Z,18.40
2022-11-21T22:38:45.978Z,17.90
2022-11-21T22:41:17.314Z,18.40
2022-11-21T22:43:44.944Z,18.40
2022-11-21T22:46:12.885Z,18.40
2022-11-21T22:48:39.539Z,18.40
2022-11-21T22:51:06.535Z,18.40
2022-11-21T22:53:38.514Z,18.40
2022-11-21T22:56:10.913Z,18.40
2022-11-21T22:58:40.009Z,18.40
2022-11-21T23:01:18.168Z,18.40
2022-11-21T23:03:45.635Z,18.40
2022-11-21T23:06:23.412Z,18.30
2022-11-21T23:08:51.539Z,18.40
2022-11-21T23:11:27.718Z,18.40
2022-11-21T23:13:55.703Z,18.40
2022-11-21T23:16:22.383Z,18.30
2022-11-21T23:18:52.188Z,18.30
2022-11-21T23:21:18.940Z,18.30
2022-11-21T23:23:45.535Z,18.30
2022-11-21T23:26:12.206Z,18.30
2022-11-21T23:28:39.041Z,18.30
2022-11-21T23:31:05.755Z,18.30
2022-11-21T23:33:32.367Z,18.30
2022-11-21T23:35:59.025Z,18.30
2022-11-21T23:38:25.640Z,18.30
2022-11-21T23:40:52.303Z,18.30
2022-11-21T23:43:19.127Z,18.30
2022-11-21T23:45:50.487Z,18.30
2022-11-21T23:48:17.193Z,18.30
2022-11-21T23:50:44.178Z,18.20
2022-11-21T23:53:10.731Z,18.20
2022-11-21T23:55:37.323Z,18.20
2022-11-21T23:58:04.209Z,18.30
